sensor_id;sensor_type;location;lat;lon;timestamp;temperature;humidity
8008;DHT22;4049;49.468;11.200;2023-07-29T00:01:02;18.30;99.90
8008;DHT22;4049;49.468;11.200;2023-07-29T00:03:29;18.30;99.90
8008;DHT22;4049;49.468;11.200;2023-07-29T00:05:59;18.30;99.90
8008;DHT22;4049;49.468;11.200;2023-07-29T00:08:25;18.20;99.90
8008;DHT22;4049;49.468;11.200;2023-07-29T00:10:53;18.10;99.90
8008;DHT22;4049;49.468;11.200;2023-07-29T00:13:20;18.10;99.90
8008;DHT22;4049;49.468;11.200;2023-07-29T00:15:46;18.00;99.90
8008;DHT22;4049;49.468;11.200;2023-07-29T00:18:13;18.00;99.90
8008;DHT22;4049;49.468;11.200;2023-07-29T00:20:40;18.00;99.90
8008;DHT22;4049;49.468;11.200;2023-07-29T00:23:09;17.90;99.90
8008;DHT22;4049;49.468;11.200;2023-07-29T00:25:36;17.90;99.90
8008;DHT22;4049;49.468;11.200;2023-07-29T00:28:03;17.90;99.90
8008;DHT22;4049;49.468;11.200;2023-07-29T00:30:30;17.90;99.90
8008;DHT22;4049;49.468;11.200;2023-07-29T00:32:57;17.90;99.90
8008;DHT22;4049;49.468;11.200;2023-07-29T00:35:23;17.90;99.90
8008;DHT22;4049;49.468;11.200;2023-07-29T00:37:50;17.90;99.90
8008;DHT22;4049;49.468;11.200;2023-07-29T00:40:20;17.90;99.90
8008;DHT22;4049;49.468;11.200;2023-07-29T00:42:48;17.80;99.90
8008;DHT22;4049;49.468;11.200;2023-07-29T00:45:16;17.80;99.90
8008;DHT22;4049;49.468;11.200;2023-07-29T00:47:43;17.80;99.90
8008;DHT22;4049;49.468;11.200;2023-07-29T00:50:11;17.80;99.90
8008;DHT22;4049;49.468;11.200;2023-07-29T00:52:38;17.80;99.90
8008;DHT22;4049;49.468;11.200;2023-07-29T00:55:07;17.80;99.90
8008;DHT22;4049;49.468;11.200;2023-07-29T00:57:35;17.80;99.90
8008;DHT22;4049;49.468;11.200;2023-07-29T01:00:14;17.80;99.90
8008;DHT22;4049;49.468;11.200;2023-07-29T01:02:42;17.80;99.90
8008;DHT22;4049;49.468;11.200;2023-07-29T01:05:14;17.80;99.90
8008;DHT22;4049;49.468;11.200;2023-07-29T01:07:47;17.80;99.90
8008;DHT22;4049;49.468;11.200;2023-07-29T01:10:23;17.70;99.90
8008;DHT22;4049;49.468;11.200;2023-07-29T01:12:57;17.70;99.90
8008;DHT22;4049;49.468;11.200;2023-07-29T01:15:33;17.70;99.90
8008;DHT22;4049;49.468;11.200;2023-07-29T01:18:05;17.60;99.90
8008;DHT22;4049;49.468;11.200;2023-07-29T01:20:33;17.60;99.90
8008;DHT22;4049;49.468;11.200;2023-07-29T01:23:00;17.60;99.90
8008;DHT22;4049;49.468;11.200;2023-07-29T01:25:30;17.60;99.90
8008;DHT22;4049;49.468;11.200;2023-07-29T01:27:57;17.50;99.90
8008;DHT22;4049;49.468;11.200;2023-07-29T01:30:33;17.50;99.90
8008;DHT22;4049;49.468;11.200;2023-07-29T01:33:08;17.50;99.90
8008;DHT22;4049;49.468;11.200;2023-07-29T01:35:42;17.50;99.90
8008;DHT22;4049;49.468;11.200;2023-07-29T01:38:14;17.50;99.90
8008;DHT22;4049;49.468;11.200;2023-07-29T01:40:43;17.50;99.90
8008;DHT22;4049;49.468;11.200;2023-07-29T01:43:11;17.50;99.90
8008;DHT22;4049;49.468;11.200;2023-07-29T01:45:38;17.50;99.90
8008;DHT22;4049;49.468;11.200;2023-07-29T01:48:06;17.50;99.90
8008;DHT22;4049;49.468;11.200;2023-07-29T01:50:34;17.50;99.90
8008;DHT22;4049;49.468;11.200;2023-07-29T01:53:01;17.50;99.90
8008;DHT22;4049;49.468;11.200;2023-07-29T01:55:28;17.50;99.90
8008;DHT22;4049;49.468;11.200;2023-07-29T01:58:04;17.40;99.90
8008;DHT22;4049;49.468;11.200;2023-07-29T02:00:31;17.40;99.90
8008;DHT22;4049;49.468;11.200;2023-07-29T02:02:58;17.40;99.90
8008;DHT22;4049;49.468;11.200;2023-07-29T02:05:25;17.40;99.90
8008;DHT22;4049;49.468;11.200;2023-07-29T02:07:52;17.40;99.90
8008;DHT22;4049;49.468;11.200;2023-07-29T02:10:19;17.30;99.90
8008;DHT22;4049;49.468;11.200;2023-07-29T02:12:46;17.30;99.90
8008;DHT22;4049;49.468;11.200;2023-07-29T02:15:14;17.30;99.90
8008;DHT22;4049;49.468;11.200;2023-07-29T02:17:42;17.20;99.90
8008;DHT22;4049;49.468;11.200;2023-07-29T02:20:09;17.20;99.90
8008;DHT22;4049;49.468;11.200;2023-07-29T02:22:37;17.10;99.90
8008;DHT22;4049;49.468;11.200;2023-07-29T02:25:04;17.10;99.90
8008;DHT22;4049;49.468;11.200;2023-07-29T02:27:32;17.10;99.90
8008;DHT22;4049;49.468;11.200;2023-07-29T02:29:59;17.10;99.90
8008;DHT22;4049;49.468;11.200;2023-07-29T02:32:27;17.00;99.90
8008;DHT22;4049;49.468;11.200;2023-07-29T02:34:54;17.00;99.90
8008;DHT22;4049;49.468;11.200;2023-07-29T02:37:21;17.00;99.90
8008;DHT22;4049;49.468;11.200;2023-07-29T02:39:48;16.90;99.90
8008;DHT22;4049;49.468;11.200;2023-07-29T02:42:15;17.00;99.90
8008;DHT22;4049;49.468;11.200;2023-07-29T02:44:42;17.00;99.90
8008;DHT22;4049;49.468;11.200;2023-07-29T02:47:09;17.00;99.90
8008;DHT22;4049;49.468;11.200;2023-07-29T02:49:37;16.90;99.90
8008;DHT22;4049;49.468;11.200;2023-07-29T02:52:05;16.90;99.90
8008;DHT22;4049;49.468;11.200;2023-07-29T02:54:32;16.90;99.90
8008;DHT22;4049;49.468;11.200;2023-07-29T02:56:58;16.80;99.90
8008;DHT22;4049;49.468;11.200;2023-07-29T02:59:26;16.80;99.90
8008;DHT22;4049;49.468;11.200;2023-07-29T03:01:53;16.80;99.90
8008;DHT22;4049;49.468;11.200;2023-07-29T03:04:20;16.70;99.90
8008;DHT22;4049;49.468;11.200;2023-07-29T03:06:48;16.70;99.90
8008;DHT22;4049;49.468;11.200;2023-07-29T03:09:16;16.70;99.90
8008;DHT22;4049;49.468;11.200;2023-07-29T03:11:43;16.80;99.90
8008;DHT22;4049;49.468;11.200;2023-07-29T03:14:11;16.70;99.90
8008;DHT22;4049;49.468;11.200;2023-07-29T03:16:38;16.70;99.90
8008;DHT22;4049;49.468;11.200;2023-07-29T03:19:05;16.60;99.90
8008;DHT22;4049;49.468;11.200;2023-07-29T03:21:32;16.60;99.90
8008;DHT22;4049;49.468;11.200;2023-07-29T03:24:00;16.50;99.90
8008;DHT22;4049;49.468;11.200;2023-07-29T03:26:27;16.50;99.90
8008;DHT22;4049;49.468;11.200;2023-07-29T03:28:53;16.50;99.90
8008;DHT22;4049;49.468;11.200;2023-07-29T03:31:22;16.40;99.90
8008;DHT22;4049;49.468;11.200;2023-07-29T03:33:49;16.30;99.90
8008;DHT22;4049;49.468;11.200;2023-07-29T03:36:16;16.30;99.90
8008;DHT22;4049;49.468;11.200;2023-07-29T03:38:43;16.30;99.90
8008;DHT22;4049;49.468;11.200;2023-07-29T03:41:12;16.30;99.90
8008;DHT22;4049;49.468;11.200;2023-07-29T03:43:39;16.30;99.90
8008;DHT22;4049;49.468;11.200;2023-07-29T03:46:05;16.40;99.90
8008;DHT22;4049;49.468;11.200;2023-07-29T03:48:32;16.30;99.90
8008;DHT22;4049;49.468;11.200;2023-07-29T03:50:59;16.30;99.90
8008;DHT22;4049;49.468;11.200;2023-07-29T03:53:26;16.30;99.90
8008;DHT22;4049;49.468;11.200;2023-07-29T03:55:53;16.30;99.90
8008;DHT22;4049;49.468;11.200;2023-07-29T03:58:25;16.30;99.90
8008;DHT22;4049;49.468;11.200;2023-07-29T04:00:51;16.30;99.90
8008;DHT22;4049;49.468;11.200;2023-07-29T04:03:19;16.30;99.90
8008;DHT22;4049;49.468;11.200;2023-07-29T04:05:45;16.20;99.90
8008;DHT22;4049;49.468;11.200;2023-07-29T04:08:12;16.30;99.90
8008;DHT22;4049;49.468;11.200;2023-07-29T04:10:39;16.30;99.90
8008;DHT22;4049;49.468;11.200;2023-07-29T04:13:06;16.30;99.90
8008;DHT22;4049;49.468;11.200;2023-07-29T04:15:34;16.30;99.90
8008;DHT22;4049;49.468;11.200;2023-07-29T04:18:01;16.30;99.90
8008;DHT22;4049;49.468;11.200;2023-07-29T04:20:28;16.30;99.90
8008;DHT22;4049;49.468;11.200;2023-07-29T04:22:55;16.30;99.90
8008;DHT22;4049;49.468;11.200;2023-07-29T04:25:22;16.40;99.90
8008;DHT22;4049;49.468;11.200;2023-07-29T04:27:49;16.40;99.90
8008;DHT22;4049;49.468;11.200;2023-07-29T04:30:16;16.40;99.90
8008;DHT22;4049;49.468;11.200;2023-07-29T04:32:44;16.50;99.90
8008;DHT22;4049;49.468;11.200;2023-07-29T04:35:14;16.60;99.90
8008;DHT22;4049;49.468;11.200;2023-07-29T04:37:41;16.60;99.90
8008;DHT22;4049;49.468;11.200;2023-07-29T04:40:08;16.60;99.90
8008;DHT22;4049;49.468;11.200;2023-07-29T04:42:37;16.70;99.90
8008;DHT22;4049;49.468;11.200;2023-07-29T04:45:05;16.70;99.90
8008;DHT22;4049;49.468;11.200;2023-07-29T04:47:32;16.80;99.90
8008;DHT22;4049;49.468;11.200;2023-07-29T04:50:03;16.80;99.90
8008;DHT22;4049;49.468;11.200;2023-07-29T04:52:42;16.80;99.90
8008;DHT22;4049;49.468;11.200;2023-07-29T04:55:09;16.90;99.90
8008;DHT22;4049;49.468;11.200;2023-07-29T04:57:36;16.90;99.90
8008;DHT22;4049;49.468;11.200;2023-07-29T05:00:03;17.00;99.90
8008;DHT22;4049;49.468;11.200;2023-07-29T05:02:30;17.00;99.90
8008;DHT22;4049;49.468;11.200;2023-07-29T05:04:57;17.10;99.90
8008;DHT22;4049;49.468;11.200;2023-07-29T05:07:25;17.10;99.90
8008;DHT22;4049;49.468;11.200;2023-07-29T05:09:58;17.20;99.90
8008;DHT22;4049;49.468;11.200;2023-07-29T05:12:33;17.30;99.90
8008;DHT22;4049;49.468;11.200;2023-07-29T05:14:59;17.30;99.90
8008;DHT22;4049;49.468;11.200;2023-07-29T05:17:26;17.30;99.90
8008;DHT22;4049;49.468;11.200;2023-07-29T05:19:56;17.40;99.90
8008;DHT22;4049;49.468;11.200;2023-07-29T05:22:24;17.40;99.90
8008;DHT22;4049;49.468;11.200;2023-07-29T05:24:55;17.50;99.90
8008;DHT22;4049;49.468;11.200;2023-07-29T05:27:22;17.50;99.90
8008;DHT22;4049;49.468;11.200;2023-07-29T05:29:48;17.50;99.90
8008;DHT22;4049;49.468;11.200;2023-07-29T05:32:15;17.60;99.90
8008;DHT22;4049;49.468;11.200;2023-07-29T05:34:42;17.60;99.90
8008;DHT22;4049;49.468;11.200;2023-07-29T05:37:09;17.70;99.90
8008;DHT22;4049;49.468;11.200;2023-07-29T05:39:38;17.70;99.90
8008;DHT22;4049;49.468;11.200;2023-07-29T05:42:05;17.70;99.90
8008;DHT22;4049;49.468;11.200;2023-07-29T05:44:32;17.80;99.90
8008;DHT22;4049;49.468;11.200;2023-07-29T05:46:59;17.80;99.90
8008;DHT22;4049;49.468;11.200;2023-07-29T05:49:26;17.80;99.90
8008;DHT22;4049;49.468;11.200;2023-07-29T05:51:53;17.80;99.90
8008;DHT22;4049;49.468;11.200;2023-07-29T05:54:20;17.90;99.90
8008;DHT22;4049;49.468;11.200;2023-07-29T05:56:48;18.00;99.90
8008;DHT22;4049;49.468;11.200;2023-07-29T05:59:18;18.00;99.90
8008;DHT22;4049;49.468;11.200;2023-07-29T06:01:45;18.00;99.90
8008;DHT22;4049;49.468;11.200;2023-07-29T06:04:12;18.10;99.90
8008;DHT22;4049;49.468;11.200;2023-07-29T06:06:39;18.10;99.90
8008;DHT22;4049;49.468;11.200;2023-07-29T06:09:09;18.10;99.90
8008;DHT22;4049;49.468;11.200;2023-07-29T06:11:36;18.20;99.90
8008;DHT22;4049;49.468;11.200;2023-07-29T06:14:04;18.20;99.90
8008;DHT22;4049;49.468;11.200;2023-07-29T06:16:31;18.30;99.90
8008;DHT22;4049;49.468;11.200;2023-07-29T06:19:01;18.30;99.90
8008;DHT22;4049;49.468;11.200;2023-07-29T06:21:41;18.30;99.90
8008;DHT22;4049;49.468;11.200;2023-07-29T06:24:17;18.30;99.90
8008;DHT22;4049;49.468;11.200;2023-07-29T06:26:44;18.30;99.90
8008;DHT22;4049;49.468;11.200;2023-07-29T06:29:12;18.30;99.90
8008;DHT22;4049;49.468;11.200;2023-07-29T06:31:40;18.30;99.90
8008;DHT22;4049;49.468;11.200;2023-07-29T06:34:12;18.30;99.90
8008;DHT22;4049;49.468;11.200;2023-07-29T06:36:39;18.30;99.90
8008;DHT22;4049;49.468;11.200;2023-07-29T06:39:07;18.30;99.90
8008;DHT22;4049;49.468;11.200;2023-07-29T06:41:34;18.30;99.90
8008;DHT22;4049;49.468;11.200;2023-07-29T06:44:01;18.20;99.90
8008;DHT22;4049;49.468;11.200;2023-07-29T06:46:29;18.30;99.90
8008;DHT22;4049;49.468;11.200;2023-07-29T06:48:56;18.20;99.90
8008;DHT22;4049;49.468;11.200;2023-07-29T06:51:23;18.20;99.90
8008;DHT22;4049;49.468;11.200;2023-07-29T06:53:58;18.20;99.90
8008;DHT22;4049;49.468;11.200;2023-07-29T06:56:25;18.20;99.90
8008;DHT22;4049;49.468;11.200;2023-07-29T06:58:52;18.20;99.90
8008;DHT22;4049;49.468;11.200;2023-07-29T07:01:19;18.10;99.90
8008;DHT22;4049;49.468;11.200;2023-07-29T07:03:47;18.00;99.90
8008;DHT22;4049;49.468;11.200;2023-07-29T07:06:14;18.00;99.90
8008;DHT22;4049;49.468;11.200;2023-07-29T07:08:41;17.90;99.90
8008;DHT22;4049;49.468;11.200;2023-07-29T07:11:09;17.90;99.90
8008;DHT22;4049;49.468;11.200;2023-07-29T07:13:36;17.90;99.90
8008;DHT22;4049;49.468;11.200;2023-07-29T07:16:03;17.90;99.90
8008;DHT22;4049;49.468;11.200;2023-07-29T07:18:30;17.90;99.90
8008;DHT22;4049;49.468;11.200;2023-07-29T07:20:58;17.90;99.90
8008;DHT22;4049;49.468;11.200;2023-07-29T07:23:25;17.80;99.90
8008;DHT22;4049;49.468;11.200;2023-07-29T07:25:52;17.90;99.90
8008;DHT22;4049;49.468;11.200;2023-07-29T07:28:19;17.90;99.90
8008;DHT22;4049;49.468;11.200;2023-07-29T07:30:46;17.90;99.90
8008;DHT22;4049;49.468;11.200;2023-07-29T07:33:16;18.00;99.90
8008;DHT22;4049;49.468;11.200;2023-07-29T07:35:43;18.10;99.90
8008;DHT22;4049;49.468;11.200;2023-07-29T07:38:11;18.20;99.90
8008;DHT22;4049;49.468;11.200;2023-07-29T07:40:38;18.20;99.90
8008;DHT22;4049;49.468;11.200;2023-07-29T07:43:05;18.20;99.90
8008;DHT22;4049;49.468;11.200;2023-07-29T07:45:32;18.40;99.90
8008;DHT22;4049;49.468;11.200;2023-07-29T07:47:59;18.50;99.90
8008;DHT22;4049;49.468;11.200;2023-07-29T07:50:29;18.60;99.90
8008;DHT22;4049;49.468;11.200;2023-07-29T07:52:56;18.70;99.90
8008;DHT22;4049;49.468;11.200;2023-07-29T07:55:24;18.80;99.90
8008;DHT22;4049;49.468;11.200;2023-07-29T07:57:51;18.80;99.90
8008;DHT22;4049;49.468;11.200;2023-07-29T08:00:18;18.90;99.90
8008;DHT22;4049;49.468;11.200;2023-07-29T08:02:45;18.90;99.90
8008;DHT22;4049;49.468;11.200;2023-07-29T08:05:12;19.00;99.90
8008;DHT22;4049;49.468;11.200;2023-07-29T08:07:41;19.00;99.90
8008;DHT22;4049;49.468;11.200;2023-07-29T08:10:08;19.10;99.90
8008;DHT22;4049;49.468;11.200;2023-07-29T08:12:36;19.00;99.90
8008;DHT22;4049;49.468;11.200;2023-07-29T08:15:04;19.00;99.90
8008;DHT22;4049;49.468;11.200;2023-07-29T08:17:31;18.90;99.90
8008;DHT22;4049;49.468;11.200;2023-07-29T08:19:58;18.90;99.90
8008;DHT22;4049;49.468;11.200;2023-07-29T08:22:27;18.90;99.90
8008;DHT22;4049;49.468;11.200;2023-07-29T08:25:00;18.80;99.90
8008;DHT22;4049;49.468;11.200;2023-07-29T08:27:26;18.70;99.90
8008;DHT22;4049;49.468;11.200;2023-07-29T08:29:55;18.60;99.90
8008;DHT22;4049;49.468;11.200;2023-07-29T08:32:22;18.60;99.90
8008;DHT22;4049;49.468;11.200;2023-07-29T08:34:57;18.50;99.90
8008;DHT22;4049;49.468;11.200;2023-07-29T08:37:24;18.40;99.90
8008;DHT22;4049;49.468;11.200;2023-07-29T08:39:52;18.30;99.90
8008;DHT22;4049;49.468;11.200;2023-07-29T08:42:23;18.30;99.90
8008;DHT22;4049;49.468;11.200;2023-07-29T08:44:56;18.30;99.90
8008;DHT22;4049;49.468;11.200;2023-07-29T08:47:26;18.30;99.90
8008;DHT22;4049;49.468;11.200;2023-07-29T08:49:54;18.30;99.90
8008;DHT22;4049;49.468;11.200;2023-07-29T08:52:22;18.30;99.90
8008;DHT22;4049;49.468;11.200;2023-07-29T08:54:50;18.30;99.90
8008;DHT22;4049;49.468;11.200;2023-07-29T08:57:20;18.30;99.90
8008;DHT22;4049;49.468;11.200;2023-07-29T08:59:47;18.30;99.90
8008;DHT22;4049;49.468;11.200;2023-07-29T09:02:16;18.30;99.90
8008;DHT22;4049;49.468;11.200;2023-07-29T09:04:43;18.30;99.90
8008;DHT22;4049;49.468;11.200;2023-07-29T09:07:10;18.40;99.90
8008;DHT22;4049;49.468;11.200;2023-07-29T09:09:37;18.40;99.90
8008;DHT22;4049;49.468;11.200;2023-07-29T09:12:18;18.40;99.90
8008;DHT22;4049;49.468;11.200;2023-07-29T09:14:45;18.40;99.90
8008;DHT22;4049;49.468;11.200;2023-07-29T09:17:12;18.40;99.90
8008;DHT22;4049;49.468;11.200;2023-07-29T09:19:51;18.50;99.90
8008;DHT22;4049;49.468;11.200;2023-07-29T09:22:19;18.50;99.90
8008;DHT22;4049;49.468;11.200;2023-07-29T09:24:51;18.50;99.90
8008;DHT22;4049;49.468;11.200;2023-07-29T09:27:28;18.60;99.90
8008;DHT22;4049;49.468;11.200;2023-07-29T09:29:57;18.60;99.90
8008;DHT22;4049;49.468;11.200;2023-07-29T09:32:25;18.70;99.90
8008;DHT22;4049;49.468;11.200;2023-07-29T09:34:53;18.70;99.90
8008;DHT22;4049;49.468;11.200;2023-07-29T09:37:21;18.70;99.90
8008;DHT22;4049;49.468;11.200;2023-07-29T09:39:49;18.70;99.90
8008;DHT22;4049;49.468;11.200;2023-07-29T09:42:17;18.70;99.90
8008;DHT22;4049;49.468;11.200;2023-07-29T09:44:45;18.70;99.90
8008;DHT22;4049;49.468;11.200;2023-07-29T09:47:19;18.70;99.90
8008;DHT22;4049;49.468;11.200;2023-07-29T09:49:46;18.70;99.90
8008;DHT22;4049;49.468;11.200;2023-07-29T09:52:16;18.80;99.90
8008;DHT22;4049;49.468;11.200;2023-07-29T09:54:43;18.80;99.90
8008;DHT22;4049;49.468;11.200;2023-07-29T09:57:16;18.90;99.90
8008;DHT22;4049;49.468;11.200;2023-07-29T09:59:44;18.90;99.90
8008;DHT22;4049;49.468;11.200;2023-07-29T10:02:20;18.90;99.90
8008;DHT22;4049;49.468;11.200;2023-07-29T10:04:48;19.00;99.90
8008;DHT22;4049;49.468;11.200;2023-07-29T10:07:17;19.10;99.90
8008;DHT22;4049;49.468;11.200;2023-07-29T10:09:45;19.20;99.90
8008;DHT22;4049;49.468;11.200;2023-07-29T10:12:13;19.30;99.90
8008;DHT22;4049;49.468;11.200;2023-07-29T10:14:40;19.40;99.90
8008;DHT22;4049;49.468;11.200;2023-07-29T10:17:08;19.50;99.90
8008;DHT22;4049;49.468;11.200;2023-07-29T10:19:41;19.60;99.90
8008;DHT22;4049;49.468;11.200;2023-07-29T10:22:10;19.70;99.90
8008;DHT22;4049;49.468;11.200;2023-07-29T10:24:46;19.70;99.90
8008;DHT22;4049;49.468;11.200;2023-07-29T10:27:15;19.80;99.90
8008;DHT22;4049;49.468;11.200;2023-07-29T10:29:44;19.90;99.90
8008;DHT22;4049;49.468;11.200;2023-07-29T10:32:12;20.10;99.90
8008;DHT22;4049;49.468;11.200;2023-07-29T10:34:39;20.30;99.90
8008;DHT22;4049;49.468;11.200;2023-07-29T10:37:06;20.50;99.90
8008;DHT22;4049;49.468;11.200;2023-07-29T10:39:44;20.70;99.90
8008;DHT22;4049;49.468;11.200;2023-07-29T10:42:18;20.80;99.90
8008;DHT22;4049;49.468;11.200;2023-07-29T10:44:49;21.00;99.90
8008;DHT22;4049;49.468;11.200;2023-07-29T10:47:18;21.10;99.90
8008;DHT22;4049;49.468;11.200;2023-07-29T10:49:46;21.20;99.90
8008;DHT22;4049;49.468;11.200;2023-07-29T10:52:14;21.30;99.90
8008;DHT22;4049;49.468;11.200;2023-07-29T10:54:44;21.40;99.90
8008;DHT22;4049;49.468;11.200;2023-07-29T10:57:14;21.40;99.90
8008;DHT22;4049;49.468;11.200;2023-07-29T10:59:54;21.30;99.90
8008;DHT22;4049;49.468;11.200;2023-07-29T11:02:22;21.20;99.90
8008;DHT22;4049;49.468;11.200;2023-07-29T11:04:54;21.10;99.90
8008;DHT22;4049;49.468;11.200;2023-07-29T11:07:22;21.10;99.90
8008;DHT22;4049;49.468;11.200;2023-07-29T11:10:01;21.20;99.90
8008;DHT22;4049;49.468;11.200;2023-07-29T11:12:41;21.30;99.90
8008;DHT22;4049;49.468;11.200;2023-07-29T11:15:24;21.40;99.90
8008;DHT22;4049;49.468;11.200;2023-07-29T11:17:52;21.50;99.90
8008;DHT22;4049;49.468;11.200;2023-07-29T11:20:21;21.70;99.90
8008;DHT22;4049;49.468;11.200;2023-07-29T11:22:48;21.80;99.90
8008;DHT22;4049;49.468;11.200;2023-07-29T11:25:17;21.90;99.90
8008;DHT22;4049;49.468;11.200;2023-07-29T11:27:45;21.90;99.90
8008;DHT22;4049;49.468;11.200;2023-07-29T11:30:13;21.80;99.90
8008;DHT22;4049;49.468;11.200;2023-07-29T11:32:42;21.80;99.90
8008;DHT22;4049;49.468;11.200;2023-07-29T11:35:11;21.80;99.90
8008;DHT22;4049;49.468;11.200;2023-07-29T11:37:39;21.80;99.90
8008;DHT22;4049;49.468;11.200;2023-07-29T11:40:06;21.80;99.90
8008;DHT22;4049;49.468;11.200;2023-07-29T11:42:37;21.80;99.90
8008;DHT22;4049;49.468;11.200;2023-07-29T11:45:06;21.80;99.90
8008;DHT22;4049;49.468;11.200;2023-07-29T11:47:33;21.70;99.90
8008;DHT22;4049;49.468;11.200;2023-07-29T11:50:03;21.70;99.90
8008;DHT22;4049;49.468;11.200;2023-07-29T11:52:31;21.60;99.90
8008;DHT22;4049;49.468;11.200;2023-07-29T11:54:59;21.50;99.90
8008;DHT22;4049;49.468;11.200;2023-07-29T11:57:26;21.50;99.90
8008;DHT22;4049;49.468;11.200;2023-07-29T11:59:55;21.50;99.90
8008;DHT22;4049;49.468;11.200;2023-07-29T12:02:23;21.60;99.90
8008;DHT22;4049;49.468;11.200;2023-07-29T12:04:50;21.60;99.90
8008;DHT22;4049;49.468;11.200;2023-07-29T12:07:18;21.80;99.90
8008;DHT22;4049;49.468;11.200;2023-07-29T12:09:46;22.00;99.90
8008;DHT22;4049;49.468;11.200;2023-07-29T12:12:13;22.10;99.90
8008;DHT22;4049;49.468;11.200;2023-07-29T12:14:43;22.30;99.90
8008;DHT22;4049;49.468;11.200;2023-07-29T12:17:12;22.40;99.90
8008;DHT22;4049;49.468;11.200;2023-07-29T12:19:40;22.60;99.90
8008;DHT22;4049;49.468;11.200;2023-07-29T12:22:08;22.80;99.90
8008;DHT22;4049;49.468;11.200;2023-07-29T12:24:36;23.00;99.90
8008;DHT22;4049;49.468;11.200;2023-07-29T12:27:04;23.10;99.90
8008;DHT22;4049;49.468;11.200;2023-07-29T12:29:31;23.20;99.90
8008;DHT22;4049;49.468;11.200;2023-07-29T12:31:59;23.30;99.90
8008;DHT22;4049;49.468;11.200;2023-07-29T12:34:28;23.40;99.90
8008;DHT22;4049;49.468;11.200;2023-07-29T12:36:56;23.60;99.90
8008;DHT22;4049;49.468;11.200;2023-07-29T12:39:25;23.80;99.90
8008;DHT22;4049;49.468;11.200;2023-07-29T12:41:54;24.00;99.90
8008;DHT22;4049;49.468;11.200;2023-07-29T12:44:22;24.20;99.90
8008;DHT22;4049;49.468;11.200;2023-07-29T12:46:50;24.30;99.90
8008;DHT22;4049;49.468;11.200;2023-07-29T12:49:17;24.40;99.90
8008;DHT22;4049;49.468;11.200;2023-07-29T12:51:45;24.30;99.90
8008;DHT22;4049;49.468;11.200;2023-07-29T12:54:12;24.30;99.90
8008;DHT22;4049;49.468;11.200;2023-07-29T12:56:39;24.30;99.90
8008;DHT22;4049;49.468;11.200;2023-07-29T12:59:06;24.40;99.90
8008;DHT22;4049;49.468;11.200;2023-07-29T13:01:33;24.50;99.90
8008;DHT22;4049;49.468;11.200;2023-07-29T13:04:00;24.70;99.90
8008;DHT22;4049;49.468;11.200;2023-07-29T13:06:26;24.90;99.90
8008;DHT22;4049;49.468;11.200;2023-07-29T13:08:55;25.00;99.90
8008;DHT22;4049;49.468;11.200;2023-07-29T13:11:21;25.10;99.90
8008;DHT22;4049;49.468;11.200;2023-07-29T13:13:49;25.10;99.90
8008;DHT22;4049;49.468;11.200;2023-07-29T13:16:15;25.10;99.90
8008;DHT22;4049;49.468;11.200;2023-07-29T13:18:43;25.10;99.90
8008;DHT22;4049;49.468;11.200;2023-07-29T13:21:10;25.20;99.90
8008;DHT22;4049;49.468;11.200;2023-07-29T13:23:37;25.40;99.90
8008;DHT22;4049;49.468;11.200;2023-07-29T13:26:05;25.50;99.90
8008;DHT22;4049;49.468;11.200;2023-07-29T13:28:32;25.50;99.90
8008;DHT22;4049;49.468;11.200;2023-07-29T13:30:59;25.50;99.90
8008;DHT22;4049;49.468;11.200;2023-07-29T13:33:26;25.50;99.90
8008;DHT22;4049;49.468;11.200;2023-07-29T13:35:53;25.50;99.90
8008;DHT22;4049;49.468;11.200;2023-07-29T13:38:19;25.40;99.90
8008;DHT22;4049;49.468;11.200;2023-07-29T13:40:46;25.30;99.90
8008;DHT22;4049;49.468;11.200;2023-07-29T13:43:17;25.30;99.90
8008;DHT22;4049;49.468;11.200;2023-07-29T13:45:44;25.20;99.90
8008;DHT22;4049;49.468;11.200;2023-07-29T13:48:14;25.10;99.90
8008;DHT22;4049;49.468;11.200;2023-07-29T13:50:40;25.00;99.90
8008;DHT22;4049;49.468;11.200;2023-07-29T13:53:09;25.10;99.90
8008;DHT22;4049;49.468;11.200;2023-07-29T13:55:36;25.40;99.90
8008;DHT22;4049;49.468;11.200;2023-07-29T13:58:03;25.60;99.90
8008;DHT22;4049;49.468;11.200;2023-07-29T14:00:31;25.50;99.90
8008;DHT22;4049;49.468;11.200;2023-07-29T14:02:58;25.50;99.90
8008;DHT22;4049;49.468;11.200;2023-07-29T14:05:24;25.30;99.90
8008;DHT22;4049;49.468;11.200;2023-07-29T14:07:51;25.30;99.90
8008;DHT22;4049;49.468;11.200;2023-07-29T14:10:18;25.20;99.90
8008;DHT22;4049;49.468;11.200;2023-07-29T14:12:45;25.10;99.90
8008;DHT22;4049;49.468;11.200;2023-07-29T14:15:12;25.00;99.90
8008;DHT22;4049;49.468;11.200;2023-07-29T14:17:40;25.00;99.90
8008;DHT22;4049;49.468;11.200;2023-07-29T14:20:07;25.00;99.90
8008;DHT22;4049;49.468;11.200;2023-07-29T14:22:36;25.10;99.90
8008;DHT22;4049;49.468;11.200;2023-07-29T14:25:03;25.30;99.90
8008;DHT22;4049;49.468;11.200;2023-07-29T14:27:30;25.30;99.90
8008;DHT22;4049;49.468;11.200;2023-07-29T14:29:57;25.40;99.90
8008;DHT22;4049;49.468;11.200;2023-07-29T14:32:23;25.40;99.90
8008;DHT22;4049;49.468;11.200;2023-07-29T14:34:52;25.40;99.90
8008;DHT22;4049;49.468;11.200;2023-07-29T14:37:19;25.30;99.90
8008;DHT22;4049;49.468;11.200;2023-07-29T14:39:45;25.30;99.90
8008;DHT22;4049;49.468;11.200;2023-07-29T14:42:13;25.20;99.90
8008;DHT22;4049;49.468;11.200;2023-07-29T14:44:40;25.10;99.90
8008;DHT22;4049;49.468;11.200;2023-07-29T14:47:07;25.10;99.90
8008;DHT22;4049;49.468;11.200;2023-07-29T14:49:34;25.10;99.90
8008;DHT22;4049;49.468;11.200;2023-07-29T14:52:03;25.10;99.90
8008;DHT22;4049;49.468;11.200;2023-07-29T14:54:30;25.10;99.90
8008;DHT22;4049;49.468;11.200;2023-07-29T14:56:57;25.10;99.90
8008;DHT22;4049;49.468;11.200;2023-07-29T14:59:24;25.10;99.90
8008;DHT22;4049;49.468;11.200;2023-07-29T15:01:50;25.20;99.90
8008;DHT22;4049;49.468;11.200;2023-07-29T15:04:17;25.30;99.90
8008;DHT22;4049;49.468;11.200;2023-07-29T15:06:44;25.30;99.90
8008;DHT22;4049;49.468;11.200;2023-07-29T15:09:12;25.30;99.90
8008;DHT22;4049;49.468;11.200;2023-07-29T15:11:39;25.30;99.90
8008;DHT22;4049;49.468;11.200;2023-07-29T15:14:06;25.40;99.90
8008;DHT22;4049;49.468;11.200;2023-07-29T15:16:33;25.50;99.90
8008;DHT22;4049;49.468;11.200;2023-07-29T15:19:01;25.40;99.90
8008;DHT22;4049;49.468;11.200;2023-07-29T15:21:28;25.40;99.90
8008;DHT22;4049;49.468;11.200;2023-07-29T15:23:55;25.50;99.90
8008;DHT22;4049;49.468;11.200;2023-07-29T15:26:23;25.50;99.90
8008;DHT22;4049;49.468;11.200;2023-07-29T15:28:50;25.50;99.90
8008;DHT22;4049;49.468;11.200;2023-07-29T15:31:17;25.50;99.90
8008;DHT22;4049;49.468;11.200;2023-07-29T15:33:44;25.50;99.90
8008;DHT22;4049;49.468;11.200;2023-07-29T15:36:11;25.40;99.90
8008;DHT22;4049;49.468;11.200;2023-07-29T15:38:38;25.40;99.90
8008;DHT22;4049;49.468;11.200;2023-07-29T15:41:04;25.50;99.90
8008;DHT22;4049;49.468;11.200;2023-07-29T15:43:33;25.50;99.90
8008;DHT22;4049;49.468;11.200;2023-07-29T15:45:59;25.60;99.90
8008;DHT22;4049;49.468;11.200;2023-07-29T15:48:26;25.60;99.90
8008;DHT22;4049;49.468;11.200;2023-07-29T15:50:53;25.50;99.90